Time;durP1;ratioP1;P1;durP2;ratioP2;P2;SDS_P1;SDS_P2;PMS_P1;PMS_P2;Temp;Humidity;BMP_temperature;BMP_pressure;BME280_temperature;BME280_humidity;BME280_pressure;Samples;Min_cycle;Max_cycle;Signal;HPM_P1;HPM_P2
2022/05/08 00:02:21;;;;;;;20.77;4.77;;;7.10;78.50;;;;;;4809709;29;20216;-85
2022/05/08 00:04:50;;;;;;;21.23;5.00;;;7.00;78.90;;;;;;4809803;29;20274;-84
2022/05/08 00:07:19;;;;;;;20.17;4.53;;;7.00;79.10;;;;;;4826163;29;20176;-85
2022/05/08 00:09:45;;;;;;;24.00;6.27;;;6.80;79.00;;;;;;4826131;29;20213;-83
2022/05/08 00:12:11;;;;;;;24.93;5.40;;;6.80;79.20;;;;;;4826280;29;20667;-84
2022/05/08 00:14:38;;;;;;;20.83;4.77;;;6.90;79.10;;;;;;4826075;29;20187;-85
2022/05/08 00:17:04;;;;;;;27.17;4.70;;;6.90;79.70;;;;;;4825855;29;20270;-85
2022/05/08 00:19:30;;;;;;;16.97;4.77;;;7.00;79.40;;;;;;4809358;29;20184;-85
2022/05/08 00:21:55;;;;;;;19.23;4.83;;;6.90;79.60;;;;;;4825668;29;20215;-85
2022/05/08 00:24:21;;;;;;;21.63;4.70;;;6.90;80.00;;;;;;4811848;29;20198;-86
2022/05/08 00:26:47;;;;;;;23.73;5.93;;;7.00;79.90;;;;;;4812222;29;20568;-86
2022/05/08 00:29:12;;;;;;;21.57;5.30;;;7.00;79.60;;;;;;4828286;29;20218;-86
2022/05/08 00:31:38;;;;;;;23.77;5.37;;;6.80;79.50;;;;;;4812486;29;20224;-85
2022/05/08 00:34:04;;;;;;;22.27;4.53;;;6.80;79.70;;;;;;4827864;29;20176;-86
2022/05/08 00:36:30;;;;;;;19.07;5.07;;;6.70;79.80;;;;;;4827146;29;20644;-87
2022/05/08 00:38:55;;;;;;;13.20;4.33;;;6.60;79.80;;;;;;4810681;29;20263;-86
2022/05/08 00:41:21;;;;;;;20.97;4.97;;;6.60;79.90;;;;;;4827729;29;20657;-85
2022/05/08 00:43:47;;;;;;;16.77;4.90;;;6.60;79.80;;;;;;4827738;29;20160;-85
2022/05/08 00:46:14;;;;;;;15.93;4.40;;;6.60;79.70;;;;;;4810886;29;20222;-86
2022/05/08 00:48:41;;;;;;;20.43;5.53;;;6.60;79.50;;;;;;4811989;29;20180;-86
2022/05/08 00:51:11;;;;;;;18.33;4.73;;;6.60;79.30;;;;;;4827212;29;20204;-85
2022/05/08 00:53:39;;;;;;;13.90;5.03;;;6.50;79.60;;;;;;4826375;29;20552;-85
2022/05/08 00:56:10;;;;;;;18.87;5.33;;;6.50;79.60;;;;;;4826740;29;20271;-85
2022/05/08 00:58:37;;;;;;;14.50;4.83;;;6.50;79.70;;;;;;4809969;29;20180;-86
2022/05/08 01:01:04;;;;;;;13.60;4.17;;;6.40;79.90;;;;;;4826046;29;20204;-85
2022/05/08 01:03:30;;;;;;;15.90;4.70;;;6.40;79.90;;;;;;4825834;29;20751;-85
2022/05/08 01:05:56;;;;;;;12.70;4.30;;;6.40;79.90;;;;;;4809087;29;20180;-85
2022/05/08 01:08:23;;;;;;;22.00;4.80;;;6.40;80.10;;;;;;4808773;29;20332;-86
2022/05/08 01:10:48;;;;;;;17.27;4.90;;;6.40;80.10;;;;;;4808565;29;20244;-86
2022/05/08 01:13:14;;;;;;;21.33;4.77;;;6.30;80.10;;;;;;4824862;29;20557;-86
2022/05/08 01:15:45;;;;;;;16.33;4.17;;;6.40;80.20;;;;;;4808487;29;20184;-86
2022/05/08 01:18:12;;;;;;;11.50;3.73;;;6.30;80.00;;;;;;4824917;29;20165;-86
2022/05/08 01:20:42;;;;;;;17.30;4.00;;;6.30;80.00;;;;;;4824746;29;20678;-86
2022/05/08 01:23:09;;;;;;;23.90;4.20;;;6.30;80.10;;;;;;4824734;29;20196;-86
2022/05/08 01:25:35;;;;;;;21.60;4.63;;;6.30;80.50;;;;;;4824735;29;20177;-85
2022/05/08 01:28:04;;;;;;;18.57;4.30;;;6.40;80.60;;;;;;4824722;29;20720;-86
2022/05/08 01:30:32;;;;;;;15.00;3.70;;;6.50;80.90;;;;;;4824751;29;20184;-86
2022/05/08 01:32:58;;;;;;;18.97;4.20;;;6.50;80.90;;;;;;4808186;29;20208;-86
2022/05/08 01:35:24;;;;;;;17.77;3.77;;;6.40;80.80;;;;;;4824598;29;20187;-86
2022/05/08 01:37:50;;;;;;;19.10;4.63;;;6.40;80.90;;;;;;4808186;29;20275;-86
2022/05/08 01:40:17;;;;;;;16.47;4.33;;;6.30;80.70;;;;;;4824473;29;20290;-86
2022/05/08 01:42:44;;;;;;;16.80;4.00;;;6.30;80.70;;;;;;4824390;29;20196;-86
2022/05/08 01:45:11;;;;;;;17.97;3.97;;;6.20;80.60;;;;;;4824547;29;20172;-86
2022/05/08 01:50:21;;;;;;;12.30;3.10;;;6.10;80.50;;;;;;4824413;29;20704;-87
2022/05/08 01:52:47;;;;;;;9.43;3.43;;;6.10;80.30;;;;;;4824310;29;20208;-86
2022/05/08 01:55:12;;;;;;;13.37;3.60;;;6.00;80.30;;;;;;4824501;29;20253;-86
2022/05/08 01:57:38;;;;;;;23.40;4.23;;;6.00;80.20;;;;;;4826480;29;20263;-86
2022/05/08 02:00:05;;;;;;;13.43;4.27;;;6.00;80.20;;;;;;4827902;29;20204;-86
2022/05/08 02:02:31;;;;;;;12.37;4.37;;;6.10;81.00;;;;;;4811450;29;20212;-86
2022/05/08 02:04:57;;;;;;;14.63;3.63;;;6.20;81.10;;;;;;4827966;29;20320;-86
2022/05/08 02:07:23;;;;;;;15.50;4.37;;;6.10;81.10;;;;;;4811683;29;20222;-86
2022/05/08 02:09:48;;;;;;;16.90;4.20;;;6.10;81.50;;;;;;4811510;29;20236;-85
2022/05/08 02:12:14;;;;;;;19.20;3.80;;;6.20;81.60;;;;;;4811443;29;20207;-86
2022/05/08 02:14:43;;;;;;;15.50;4.30;;;6.20;81.50;;;;;;4827980;29;20262;-86
2022/05/08 02:17:08;;;;;;;16.33;4.33;;;6.10;81.30;;;;;;4827759;29;20258;-85
2022/05/08 02:19:34;;;;;;;20.50;3.80;;;6.00;81.30;;;;;;4827489;29;20274;-86
2022/05/08 02:21:59;;;;;;;13.33;4.00;;;6.10;81.40;;;;;;4828021;29;20264;-86
2022/05/08 02:24:25;;;;;;;18.03;4.00;;;6.00;81.20;;;;;;4827643;29;20689;-86
2022/05/08 02:26:51;;;;;;;12.90;3.47;;;5.90;81.10;;;;;;4827535;29;20188;-86
2022/05/08 02:29:16;;;;;;;12.83;3.43;;;5.90;81.10;;;;;;4827699;29;20191;-86
2022/05/08 02:31:42;;;;;;;13.00;3.40;;;5.80;80.90;;;;;;4811806;29;20207;-86
2022/05/08 02:34:07;;;;;;;12.47;3.50;;;5.80;80.90;;;;;;4811083;29;20271;-86
2022/05/08 02:36:33;;;;;;;10.53;3.27;;;5.80;80.90;;;;;;4827229;29;20343;-87
2022/05/08 02:38:59;;;;;;;12.03;3.57;;;5.70;80.70;;;;;;4827799;29;20187;-86
2022/05/08 02:41:24;;;;;;;15.93;3.90;;;5.70;80.70;;;;;;4811346;29;20219;-86
2022/05/08 02:43:50;;;;;;;14.40;3.73;;;5.70;80.80;;;;;;4827287;29;20553;-86
2022/05/08 02:46:15;;;;;;;15.07;3.93;;;5.60;80.60;;;;;;4827152;29;20191;-85
2022/05/08 02:48:41;;;;;;;13.63;3.60;;;5.60;80.70;;;;;;4827185;29;20643;-85
2022/05/08 02:51:07;;;;;;;17.13;3.80;;;5.60;80.70;;;;;;4810866;29;20234;-85
2022/05/08 02:53:33;;;;;;;12.57;3.50;;;5.50;80.70;;;;;;4810669;29;20835;-85
2022/05/08 02:58:43;;;;;;;9.43;3.33;;;5.50;80.80;;;;;;4827164;29;20560;-85
2022/05/08 03:01:08;;;;;;;20.60;3.43;;;5.50;80.70;;;;;;4826878;29;20212;-86
2022/05/08 03:03:35;;;;;;;13.87;3.73;;;5.40;80.60;;;;;;4826691;29;20295;-85
2022/05/08 03:06:00;;;;;;;11.80;3.37;;;5.30;80.50;;;;;;4810459;29;20605;-86
2022/05/08 03:08:26;;;;;;;18.50;3.50;;;5.30;80.60;;;;;;4809539;29;20183;-85
2022/05/08 03:13:37;;;;;;;12.73;2.93;;;5.20;80.60;;;;;;4826785;29;20214;-85
2022/05/08 03:16:07;;;;;;;16.87;3.47;;;5.20;80.60;;;;;;4810316;29;20197;-85
2022/05/08 03:18:34;;;;;;;12.60;3.37;;;5.20;80.80;;;;;;4810355;29;20192;-86
2022/05/08 03:21:00;;;;;;;15.90;3.40;;;5.30;80.80;;;;;;4810159;29;20219;-86
2022/05/08 03:23:26;;;;;;;15.43;3.20;;;5.30;81.00;;;;;;4810233;29;20255;-86
2022/05/08 03:25:52;;;;;;;19.40;3.60;;;5.30;81.20;;;;;;4827469;29;20195;-87
2022/05/08 03:28:18;;;;;;;20.37;3.93;;;5.30;81.80;;;;;;4826897;29;20179;-87
2022/05/08 03:30:44;;;;;;;15.57;3.93;;;5.40;82.00;;;;;;4826727;29;20263;-86
2022/05/08 03:33:10;;;;;;;14.27;3.30;;;5.40;81.90;;;;;;4810442;29;20211;-86
2022/05/08 03:35:37;;;;;;;14.10;3.00;;;5.40;81.80;;;;;;4810219;29;20215;-87
2022/05/08 03:38:02;;;;;;;11.97;2.83;;;5.40;81.80;;;;;;4826324;29;20188;-87
2022/05/08 03:40:29;;;;;;;11.53;3.10;;;5.30;81.90;;;;;;4810078;29;20214;-87
2022/05/08 03:42:54;;;;;;;12.73;3.03;;;5.30;82.00;;;;;;4826359;29;20198;-86
2022/05/08 03:45:20;;;;;;;19.17;3.10;;;5.30;82.00;;;;;;4826241;29;20519;-86
2022/05/08 03:47:50;;;;;;;15.97;2.90;;;5.30;82.10;;;;;;4809938;29;20223;-86
2022/05/08 03:50:15;;;;;;;9.23;2.87;;;5.40;81.90;;;;;;4826159;29;20702;-86
2022/05/08 03:52:41;;;;;;;16.00;3.27;;;5.50;81.90;;;;;;4825949;29;20204;-86
2022/05/08 03:55:07;;;;;;;11.00;3.00;;;5.60;81.70;;;;;;4825932;29;20180;-86
2022/05/08 03:57:32;;;;;;;13.47;3.17;;;5.60;81.40;;;;;;4809689;29;20257;-87
2022/05/08 03:59:58;;;;;;;14.17;3.10;;;5.70;81.40;;;;;;4825886;29;20731;-86
2022/05/08 04:02:23;;;;;;;10.27;2.80;;;5.80;81.10;;;;;;4825781;29;20216;-86
2022/05/08 04:04:49;;;;;;;7.97;2.83;;;5.80;80.90;;;;;;4825910;29;20183;-86
2022/05/08 04:07:14;;;;;;;11.73;2.90;;;5.80;80.80;;;;;;4825817;29;20191;-86
2022/05/08 04:09:40;;;;;;;12.77;3.27;;;5.90;80.70;;;;;;4809564;29;20241;-86
2022/05/08 04:12:06;;;;;;;14.30;2.60;;;6.00;80.50;;;;;;4809329;29;20214;-86
2022/05/08 04:14:31;;;;;;;17.50;3.33;;;6.10;80.30;;;;;;4825670;29;20262;-86
2022/05/08 04:16:57;;;;;;;12.50;3.37;;;6.20;80.10;;;;;;4825730;29;20291;-86
2022/05/08 04:19:23;;;;;;;13.77;2.63;;;6.20;79.90;;;;;;4825584;29;20187;-86
2022/05/08 04:21:48;;;;;;;15.70;3.47;;;6.20;79.80;;;;;;4825460;29;20226;-87
2022/05/08 04:24:16;;;;;;;21.40;3.40;;;6.30;80.00;;;;;;4826066;29;20552;-86
2022/05/08 04:26:42;;;;;;;17.80;3.40;;;6.50;79.90;;;;;;4809117;29;20187;-86
2022/05/08 04:29:08;;;;;;;14.13;3.60;;;6.70;79.90;;;;;;4809162;29;20188;-86
2022/05/08 04:31:34;;;;;;;18.77;2.93;;;6.80;79.70;;;;;;4809049;29;20208;-86
2022/05/08 04:34:01;;;;;;;16.87;3.73;;;6.80;79.50;;;;;;4825509;29;20204;-86
2022/05/08 04:36:27;;;;;;;18.93;3.67;;;6.70;79.40;;;;;;4825466;29;20598;-86
2022/05/08 04:38:52;;;;;;;21.40;3.40;;;6.70;79.40;;;;;;4829038;29;20180;-86
2022/05/08 04:41:18;;;;;;;16.60;3.23;;;6.60;79.80;;;;;;4813643;29;20216;-86
2022/05/08 04:43:44;;;;;;;14.37;3.10;;;6.80;80.10;;;;;;4830479;29;20185;-86
2022/05/08 04:46:10;;;;;;;14.60;3.57;;;6.80;79.80;;;;;;4814621;29;20188;-86
2022/05/08 04:48:37;;;;;;;15.33;3.40;;;6.70;79.90;;;;;;4831243;29;20236;-86
2022/05/08 04:51:03;;;;;;;26.47;5.30;;;6.70;80.40;;;;;;4830689;29;20555;-86
2022/05/08 04:53:30;;;;;;;24.70;4.00;;;6.70;80.40;;;;;;4830261;29;20208;-86
2022/05/08 04:55:56;;;;;;;18.83;4.10;;;6.80;80.40;;;;;;4832411;29;20184;-87
2022/05/08 04:58:22;;;;;;;16.77;3.73;;;6.70;80.50;;;;;;4830581;29;20199;-86
2022/05/08 05:00:47;;;;;;;19.43;4.43;;;6.70;80.60;;;;;;4830159;29;20644;-86
2022/05/08 05:03:13;;;;;;;19.33;4.10;;;6.70;80.90;;;;;;4813500;29;20265;-86
2022/05/08 05:05:38;;;;;;;13.27;3.03;;;6.70;81.00;;;;;;4830411;29;20239;-86
2022/05/08 05:08:06;;;;;;;19.30;3.93;;;6.70;81.30;;;;;;4830029;29;20187;-86
2022/05/08 05:10:32;;;;;;;21.27;4.63;;;6.80;81.40;;;;;;4830516;29;20187;-86
2022/05/08 05:12:57;;;;;;;18.87;3.47;;;6.80;81.60;;;;;;4813665;29;20212;-86
2022/05/08 05:15:24;;;;;;;16.70;4.33;;;6.90;81.90;;;;;;4829890;29;20215;-87
2022/05/08 05:17:51;;;;;;;24.70;4.60;;;7.00;82.10;;;;;;4829393;29;20191;-87
2022/05/08 05:20:17;;;;;;;26.37;4.53;;;7.10;81.90;;;;;;4813245;29;20219;-86
2022/05/08 05:22:42;;;;;;;20.20;3.87;;;7.20;82.10;;;;;;4813491;29;20199;-86
2022/05/08 05:25:08;;;;;;;18.47;3.90;;;7.20;82.10;;;;;;4813152;29;20644;-86
2022/05/08 05:27:34;;;;;;;17.80;3.47;;;7.30;82.20;;;;;;4813639;29;20203;-86
2022/05/08 05:29:59;;;;;;;19.87;4.57;;;7.30;82.30;;;;;;4829053;29;20211;-86
2022/05/08 05:32:25;;;;;;;23.83;5.43;;;7.40;82.50;;;;;;4828511;29;20203;-86
2022/05/08 05:34:51;;;;;;;34.87;12.83;;;7.50;82.80;;;;;;4828912;29;20182;-87
2022/05/08 05:37:16;;;;;;;44.13;14.40;;;7.60;83.00;;;;;;4829105;29;20262;-87
2022/05/08 05:39:42;;;;;;;30.97;10.87;;;7.70;82.80;;;;;;4812815;29;20191;-86
2022/05/08 05:42:08;;;;;;;21.80;7.07;;;7.70;82.60;;;;;;4812695;29;20242;-86
2022/05/08 05:44:34;;;;;;;34.33;9.53;;;7.90;82.60;;;;;;4829683;29;20183;-86
2022/05/08 05:49:44;;;;;;;35.33;10.07;;;8.00;82.10;;;;;;4830332;29;20178;-86
2022/05/08 05:52:09;;;;;;;37.73;9.47;;;8.00;81.80;;;;;;4829596;29;20203;-86
2022/05/08 05:54:35;;;;;;;34.60;9.90;;;8.20;81.50;;;;;;4829877;29;20236;-86
2022/05/08 05:57:02;;;;;;;35.43;10.50;;;8.30;81.30;;;;;;4812125;29;20271;-86
2022/05/08 05:59:28;;;;;;;30.23;6.23;;;8.30;81.20;;;;;;4812299;29;20299;-86
2022/05/08 06:01:53;;;;;;;32.90;8.20;;;8.30;80.50;;;;;;4812699;29;20232;-87
2022/05/08 06:04:19;;;;;;;18.60;5.50;;;8.30;80.90;;;;;;4828572;29;20187;-86
2022/05/08 06:06:44;;;;;;;38.57;7.13;;;8.30;81.00;;;;;;4812339;29;20184;-86
2022/05/08 06:09:10;;;;;;;30.27;6.63;;;8.50;80.90;;;;;;4828866;29;20225;-86
2022/05/08 06:11:35;;;;;;;26.00;5.73;;;8.60;80.40;;;;;;4828961;29;20226;-86
2022/05/08 06:14:01;;;;;;;25.33;4.47;;;8.70;80.10;;;;;;4829506;29;20202;-86
2022/05/08 06:16:26;;;;;;;19.73;6.57;;;8.80;78.40;;;;;;4812012;29;20191;-86
2022/05/08 06:18:52;;;;;;;34.83;6.13;;;8.80;78.70;;;;;;4812055;29;20188;-86
2022/05/08 06:21:17;;;;;;;30.87;5.90;;;8.80;79.10;;;;;;4827783;29;20212;-86
2022/05/08 06:23:43;;;;;;;28.83;4.97;;;8.90;78.90;;;;;;4812468;29;20539;-86
2022/05/08 06:26:08;;;;;;;24.33;5.87;;;9.00;78.30;;;;;;4827380;29;20650;-87
2022/05/08 06:28:34;;;;;;;31.50;5.10;;;9.10;78.20;;;;;;4826814;29;20255;-86
2022/05/08 06:31:00;;;;;;;29.00;5.40;;;9.10;78.40;;;;;;4809569;29;20190;-87
2022/05/08 06:33:26;;;;;;;23.97;4.03;;;9.30;78.10;;;;;;4824776;29;20200;-87
2022/05/08 06:35:52;;;;;;;17.20;4.73;;;9.40;76.40;;;;;;4811494;29;20219;-86
2022/05/08 06:38:17;;;;;;;22.33;4.70;;;9.50;75.50;;;;;;4827932;29;20248;-87
2022/05/08 06:40:44;;;;;;;19.67;4.60;;;9.50;75.20;;;;;;4812406;29;20212;-86
2022/05/08 06:43:09;;;;;;;21.93;5.07;;;9.70;75.70;;;;;;4813058;29;20687;-86
2022/05/08 06:45:36;;;;;;;25.60;4.20;;;9.70;74.90;;;;;;4831902;29;20179;-86
2022/05/08 06:48:01;;;;;;;28.20;5.93;;;9.70;74.20;;;;;;4830714;29;20255;-87
2022/05/08 06:50:29;;;;;;;28.20;5.73;;;9.80;74.10;;;;;;4814321;29;20211;-86
2022/05/08 06:52:55;;;;;;;23.73;4.77;;;9.60;74.60;;;;;;4814850;29;20267;-86
2022/05/08 06:55:21;;;;;;;21.20;5.17;;;9.60;74.30;;;;;;4832367;29;20276;-86
2022/05/08 06:57:46;;;;;;;29.70;6.10;;;9.50;74.70;;;;;;4832057;29;20184;-86
2022/05/08 07:02:56;;;;;;;20.77;5.53;;;9.80;73.90;;;;;;4831679;29;20276;-85
2022/05/08 07:05:22;;;;;;;21.23;4.67;;;9.80;73.90;;;;;;4833329;29;20179;-87
2022/05/08 07:07:48;;;;;;;26.90;5.67;;;9.80;73.70;;;;;;4834058;29;20180;-88
2022/05/08 07:10:13;;;;;;;37.37;6.70;;;9.90;73.60;;;;;;4816204;29;20559;-86
2022/05/08 07:12:39;;;;;;;21.80;4.77;;;9.80;74.00;;;;;;4832426;29;20223;-88
2022/05/08 07:15:05;;;;;;;17.07;3.53;;;9.80;74.00;;;;;;4830439;29;20236;-87
2022/05/08 07:17:31;;;;;;;24.47;4.13;;;10.20;74.00;;;;;;4831021;29;20568;-87
2022/05/08 07:19:57;;;;;;;20.10;3.93;;;10.30;72.40;;;;;;4812019;29;20191;-87
2022/05/08 07:22:23;;;;;;;24.63;5.27;;;10.20;72.70;;;;;;4828286;29;20252;-86
2022/05/08 07:24:49;;;;;;;25.83;5.70;;;10.10;73.40;;;;;;4811272;29;20649;-87
2022/05/08 07:27:15;;;;;;;23.70;5.63;;;10.10;72.90;;;;;;4828116;29;20218;-87
2022/05/08 07:29:44;;;;;;;23.60;5.00;;;10.30;73.00;;;;;;4811406;29;20241;-87
2022/05/08 07:32:10;;;;;;;22.27;3.77;;;10.30;72.50;;;;;;4811420;29;20738;-87
2022/05/08 07:37:20;;;;;;;25.10;5.67;;;10.80;71.10;;;;;;4828312;29;20248;-87
2022/05/08 07:39:45;;;;;;;22.03;3.70;;;11.00;69.90;;;;;;4828121;29;20192;-87
2022/05/08 07:42:11;;;;;;;16.23;3.50;;;10.90;69.40;;;;;;4827813;29;20220;-87
2022/05/08 07:44:37;;;;;;;23.03;4.40;;;11.00;70.30;;;;;;4811763;29;20184;-87
2022/05/08 07:47:03;;;;;;;24.17;4.17;;;10.90;70.60;;;;;;4827811;29;20263;-87
2022/05/08 07:49:29;;;;;;;23.30;5.00;;;11.00;71.40;;;;;;4827589;29;20254;-86
2022/05/08 07:51:54;;;;;;;19.90;4.83;;;11.00;70.60;;;;;;4827655;29;20267;-86
2022/05/08 07:54:20;;;;;;;21.87;3.87;;;11.00;70.00;;;;;;4826795;29;20189;-87
2022/05/08 07:56:46;;;;;;;20.40;3.93;;;11.10;69.50;;;;;;4827046;29;20187;-87
2022/05/08 07:59:11;;;;;;;26.47;5.00;;;11.10;71.00;;;;;;4810559;29;20192;-87
2022/05/08 08:01:37;;;;;;;22.67;4.47;;;11.20;69.90;;;;;;4811312;29;20268;-86
2022/05/08 08:04:04;;;;;;;19.10;4.50;;;11.30;70.40;;;;;;4828716;29;20175;-86
2022/05/08 08:06:33;;;;;;;18.60;4.73;;;11.40;70.10;;;;;;4811668;29;20198;-87
2022/05/08 08:08:58;;;;;;;23.93;3.90;;;11.30;69.30;;;;;;4810374;29;20186;-87
2022/05/08 08:11:24;;;;;;;13.97;3.63;;;11.20;68.20;;;;;;4810309;29;20279;-87
2022/05/08 08:13:50;;;;;;;18.77;3.97;;;11.20;69.20;;;;;;4810081;29;20219;-86
2022/05/08 08:16:15;;;;;;;26.33;4.57;;;11.30;68.60;;;;;;4826533;29;20219;-86
2022/05/08 08:18:43;;;;;;;30.13;4.70;;;11.50;68.70;;;;;;4809834;29;20196;-86
2022/05/08 08:21:11;;;;;;;16.67;4.37;;;11.50;68.50;;;;;;4809977;29;20272;-87
2022/05/08 08:23:37;;;;;;;17.67;4.17;;;11.70;68.50;;;;;;4810442;29;20632;-86
2022/05/08 08:26:02;;;;;;;16.93;4.30;;;11.40;67.10;;;;;;4826936;29;20707;-86
2022/05/08 08:28:28;;;;;;;21.07;4.47;;;11.40;67.10;;;;;;4826749;29;20188;-86
2022/05/08 08:30:53;;;;;;;21.00;4.20;;;11.60;67.40;;;;;;4826467;29;20264;-86
2022/05/08 08:33:19;;;;;;;20.00;4.17;;;11.70;66.30;;;;;;4809738;29;20235;-85
2022/05/08 08:35:45;;;;;;;25.80;4.57;;;11.50;67.10;;;;;;4809917;29;20233;-86
2022/05/08 08:38:10;;;;;;;25.47;5.17;;;11.70;68.10;;;;;;4826179;29;20187;-85
2022/05/08 08:40:40;;;;;;;23.97;5.03;;;11.70;68.60;;;;;;4809901;29;20637;-87
2022/05/08 08:43:07;;;;;;;17.50;4.30;;;12.10;66.50;;;;;;4826313;29;20200;-87
2022/05/08 08:48:29;;;;;;;23.00;4.93;;;12.50;64.60;;;;;;4826646;29;20270;-86
2022/05/08 08:50:57;;;;;;;20.23;4.57;;;12.40;63.00;;;;;;4825928;29;20168;-86
2022/05/08 08:53:23;;;;;;;25.37;4.27;;;12.60;63.90;;;;;;4809174;29;20241;-86
2022/05/08 08:55:49;;;;;;;21.27;4.83;;;12.60;63.50;;;;;;4825896;29;20248;-86
2022/05/08 08:58:16;;;;;;;16.73;4.03;;;12.70;64.80;;;;;;4825804;29;20180;-87
2022/05/08 09:00:43;;;;;;;15.77;4.07;;;12.90;62.00;;;;;;4809543;29;20207;-86
2022/05/08 09:03:08;;;;;;;19.23;4.50;;;12.80;62.80;;;;;;4825970;29;20223;-87
2022/05/08 09:05:37;;;;;;;13.30;4.47;;;12.90;61.80;;;;;;4809260;29;20172;-86
2022/05/08 09:08:03;;;;;;;17.00;4.03;;;13.10;61.20;;;;;;4825156;29;20187;-86
2022/05/08 09:10:35;;;;;;;17.17;4.73;;;12.90;62.70;;;;;;4825862;29;20184;-86
2022/05/08 09:13:03;;;;;;;20.10;4.33;;;13.00;61.20;;;;;;4825946;29;20196;-86
2022/05/08 09:15:30;;;;;;;18.47;4.30;;;13.00;63.10;;;;;;4825268;29;20233;-87
2022/05/08 09:18:01;;;;;;;22.53;4.77;;;13.40;62.80;;;;;;4809150;29;20257;-87
2022/05/08 09:20:55;;;;;;;19.57;4.93;;;13.60;61.60;;;;;;4825364;29;20253;-87
2022/05/08 09:23:22;;;;;;;17.40;4.50;;;13.40;61.40;;;;;;4824874;29;20212;-87
2022/05/08 09:25:54;;;;;;;18.83;4.47;;;13.70;62.00;;;;;;4826275;29;20179;-87
2022/05/08 09:28:43;;;;;;;19.27;4.07;;;13.90;58.40;;;;;;4809720;29;20660;-87
2022/05/08 09:31:16;;;;;;;22.20;4.87;;;13.50;59.30;;;;;;4825302;29;20173;-87
2022/05/08 09:33:51;;;;;;;13.27;4.00;;;13.20;63.20;;;;;;4809072;29;20188;-87
2022/05/08 09:36:19;;;;;;;19.47;4.80;;;13.30;61.60;;;;;;4825471;29;20164;-86
2022/05/08 09:38:52;;;;;;;14.23;4.20;;;13.60;59.60;;;;;;4809233;29;20184;-86
2022/05/08 09:41:26;;;;;;;16.93;4.00;;;13.90;58.10;;;;;;4809801;29;20212;-87
2022/05/08 09:43:56;;;;;;;17.63;4.10;;;14.00;57.60;;;;;;4809225;29;20232;-88
2022/05/08 09:46:23;;;;;;;19.53;4.73;;;14.20;57.70;;;;;;4825307;29;20186;-87
2022/05/08 09:48:49;;;;;;;18.87;4.67;;;13.90;59.50;;;;;;4809525;29;20184;-87
2022/05/08 09:51:15;;;;;;;22.73;4.50;;;14.30;59.20;;;;;;4825857;29;20183;-86
2022/05/08 09:53:43;;;;;;;14.40;4.33;;;14.80;59.10;;;;;;4825845;29;20180;-88
2022/05/08 09:56:10;;;;;;;21.50;4.10;;;14.50;57.10;;;;;;4826089;29;20180;-87
2022/05/08 09:58:38;;;;;;;25.87;4.27;;;14.40;59.20;;;;;;4809141;29;20651;-88
2022/05/08 10:01:04;;;;;;;13.57;3.50;;;14.50;56.70;;;;;;4826200;29;20290;-87
2022/05/08 10:03:31;;;;;;;17.80;4.27;;;14.20;55.30;;;;;;4826937;29;20260;-86
2022/05/08 10:06:00;;;;;;;12.10;4.07;;;14.30;59.20;;;;;;4810414;29;20213;-87
2022/05/08 10:08:28;;;;;;;18.10;3.87;;;14.90;58.40;;;;;;4809240;29;20179;-86
2022/05/08 10:13:57;;;;;;;23.73;4.10;;;15.50;54.30;;;;;;4827793;29;20172;-87
2022/05/08 10:16:51;;;;;;;17.33;4.33;;;14.80;54.50;;;;;;4809448;29;20180;-86
2022/05/08 10:22:05;;;;;;;16.80;4.23;;;15.00;56.10;;;;;;4829149;29;20679;-87
2022/05/08 10:24:34;;;;;;;20.00;4.30;;;15.10;57.80;;;;;;4813779;29;20188;-87
2022/05/08 10:27:20;;;;;;;16.50;3.70;;;14.70;56.80;;;;;;4831537;29;20176;-87
2022/05/08 10:29:52;;;;;;;14.23;3.40;;;15.00;57.20;;;;;;4832133;29;20203;-87
2022/05/08 10:32:33;;;;;;;17.23;3.97;;;14.80;55.30;;;;;;4815786;29;20211;-86
2022/05/08 10:35:12;;;;;;;21.37;4.23;;;14.90;55.90;;;;;;4815256;29;20179;-87
2022/05/08 10:37:38;;;;;;;15.90;4.03;;;15.00;56.60;;;;;;4830198;29;20547;-88
2022/05/08 10:40:24;;;;;;;21.77;4.00;;;15.50;52.80;;;;;;4814332;29;20183;-88
2022/05/08 10:42:50;;;;;;;16.60;3.58;;;15.80;54.70;;;;;;4813254;29;20644;-88
2022/05/08 10:45:34;;;;;;;17.53;4.43;;;15.80;54.40;;;;;;4812866;29;20184;-87
2022/05/08 10:48:13;;;;;;;13.23;3.10;;;15.70;52.70;;;;;;4812956;29;20241;-88
2022/05/08 10:50:44;;;;;;;20.33;3.63;;;16.20;50.70;;;;;;4829335;29;20164;-87
2022/05/08 10:53:29;;;;;;;14.20;3.67;;;15.80;54.60;;;;;;4830438;29;20291;-88
2022/05/08 10:56:08;;;;;;;15.35;4.35;;;15.20;53.10;;;;;;4829347;29;20181;-87
2022/05/08 10:58:36;;;;;;;15.60;3.95;;;15.20;53.90;;;;;;4829638;29;20640;-87
2022/05/08 11:01:05;;;;;;;13.65;3.58;;;15.20;53.90;;;;;;4829219;29;20215;-87
2022/05/08 11:03:31;;;;;;;11.25;3.28;;;15.50;52.10;;;;;;4812753;29;20258;-87
2022/05/08 11:05:57;;;;;;;17.33;3.97;;;15.50;53.20;;;;;;4813528;29;20184;-88
2022/05/08 11:08:25;;;;;;;17.80;4.35;;;15.50;55.10;;;;;;4830375;29;20197;-88
2022/05/08 11:11:12;;;;;;;14.82;4.15;;;16.00;53.80;;;;;;4812851;29;20192;-87
2022/05/08 11:13:46;;;;;;;23.13;5.25;;;16.20;54.60;;;;;;4811562;29;20180;-88
2022/05/08 11:16:15;;;;;;;18.35;3.53;;;16.70;49.50;;;;;;4830695;29;20208;-87
2022/05/08 11:18:40;;;;;;;18.38;4.05;;;16.50;51.60;;;;;;4812700;29;20227;-87
2022/05/08 11:21:08;;;;;;;18.35;4.05;;;15.80;53.70;;;;;;4828062;29;20227;-87
2022/05/08 11:23:45;;;;;;;14.98;3.72;;;16.30;53.70;;;;;;4828055;29;20274;-87
2022/05/08 11:26:13;;;;;;;19.65;4.55;;;16.20;51.70;;;;;;4828069;29;20582;-87
2022/05/08 11:28:55;;;;;;;15.30;4.13;;;16.50;54.00;;;;;;4827234;29;20172;-87
2022/05/08 11:31:21;;;;;;;16.45;4.93;;;17.00;51.20;;;;;;4810968;29;20586;-87
2022/05/08 11:36:36;;;;;;;11.90;4.20;;;16.80;51.20;;;;;;4828761;29;20264;-87
2022/05/08 11:39:04;;;;;;;16.67;4.47;;;16.00;52.50;;;;;;4828691;29;20191;-86
2022/05/08 11:41:33;;;;;;;14.70;4.45;;;16.80;53.50;;;;;;4811753;29;20218;-86
2022/05/08 11:44:16;;;;;;;17.90;4.25;;;16.70;53.50;;;;;;4828602;29;20183;-87
2022/05/08 11:46:49;;;;;;;13.95;4.47;;;17.10;50.70;;;;;;4827253;29;20247;-88
2022/05/08 11:49:17;;;;;;;13.95;3.95;;;17.40;50.50;;;;;;4827067;29;20164;-87
2022/05/08 11:51:44;;;;;;;19.70;4.55;;;17.00;50.60;;;;;;4826907;29;20200;-88
2022/05/08 11:54:22;;;;;;;14.65;3.97;;;17.20;49.40;;;;;;4810579;29;20187;-88
2022/05/08 11:56:51;;;;;;;14.13;3.92;;;17.80;50.00;;;;;;4810910;29;20176;-89
2022/05/08 11:59:22;;;;;;;16.10;3.63;;;17.70;49.20;;;;;;4826717;29;20176;-88
2022/05/08 12:01:53;;;;;;;15.88;3.72;;;17.70;50.10;;;;;;4810087;29;20220;-88
2022/05/08 12:04:31;;;;;;;14.68;3.85;;;17.90;49.40;;;;;;4810110;29;20554;-88
2022/05/08 12:07:07;;;;;;;16.67;4.43;;;17.50;47.80;;;;;;4809669;29;20274;-88
2022/05/08 12:09:39;;;;;;;17.15;3.85;;;17.80;49.30;;;;;;4826034;29;20592;-88
2022/05/08 12:12:37;;;;;;;16.98;3.40;;;17.50;48.60;;;;;;4826251;29;20615;-88
2022/05/08 12:15:09;;;;;;;12.75;3.20;;;17.60;49.70;;;;;;4825872;29;20173;-89
2022/05/08 12:17:43;;;;;;;18.42;4.35;;;17.80;47.70;;;;;;4826179;29;20267;-88
2022/05/08 12:20:17;;;;;;;22.05;3.67;;;17.20;50.70;;;;;;4809343;29;20187;-89
2022/05/08 12:22:44;;;;;;;17.58;3.85;;;18.20;47.60;;;;;;4809832;29;20671;-88
2022/05/08 12:25:11;;;;;;;19.20;4.18;;;17.70;49.70;;;;;;4809444;29;20180;-88
2022/05/08 12:27:37;;;;;;;14.05;4.53;;;18.20;49.50;;;;;;4825672;29;20703;-89
2022/05/08 12:30:09;;;;;;;23.80;3.40;;;18.40;48.50;;;;;;4809282;29;20563;-89
2022/05/08 12:32:37;;;;;;;14.98;4.47;;;17.50;48.20;;;;;;4809435;29;20671;-88
2022/05/08 12:35:03;;;;;;;19.02;4.90;;;17.40;49.00;;;;;;4825647;29;20184;-88
2022/05/08 12:37:29;;;;;;;17.30;4.05;;;17.80;48.20;;;;;;4809449;29;20554;-88
2022/05/08 12:39:55;;;;;;;15.88;3.75;;;18.20;47.60;;;;;;4809183;29;20267;-88
2022/05/08 12:42:20;;;;;;;13.88;3.40;;;17.10;50.20;;;;;;4825504;29;20238;-88
2022/05/08 12:44:47;;;;;;;12.10;3.33;;;17.00;51.10;;;;;;4809217;29;20236;-88
2022/05/08 12:47:14;;;;;;;20.02;4.30;;;16.90;48.40;;;;;;4825537;29;20651;-88
2022/05/08 12:49:41;;;;;;;16.85;3.88;;;16.80;50.90;;;;;;4809022;29;20188;-88
2022/05/08 12:52:09;;;;;;;17.17;4.05;;;18.10;49.80;;;;;;4825292;29;20210;-89
2022/05/08 12:54:35;;;;;;;20.80;3.83;;;18.40;49.00;;;;;;4808955;29;20321;-88
2022/05/08 12:57:04;;;;;;;16.98;3.85;;;17.70;46.50;;;;;;4808984;29;20241;-87
2022/05/08 12:59:49;;;;;;;14.27;3.53;;;17.10;49.60;;;;;;4808856;29;20180;-89
2022/05/08 13:02:19;;;;;;;15.10;3.90;;;17.50;49.20;;;;;;4808614;29;20227;-89
2022/05/08 13:04:48;;;;;;;18.27;4.60;;;18.10;48.90;;;;;;4825218;29;20236;-89
2022/05/08 13:07:14;;;;;;;15.48;4.10;;;18.80;47.70;;;;;;4808687;29;20184;-88
2022/05/08 13:09:40;;;;;;;13.65;4.00;;;19.00;46.60;;;;;;4808682;29;20181;-89
2022/05/08 13:12:07;;;;;;;14.38;3.42;;;19.10;45.70;;;;;;4825016;29;20200;-88
2022/05/08 13:14:34;;;;;;;13.65;4.03;;;19.30;44.80;;;;;;4808512;29;20188;-89